Time;durP1;ratioP1;P1;durP2;ratioP2;P2;SDS_P1;SDS_P2;PMS_P1;PMS_P2;Temp;Humidity;BMP_temperature;BMP_pressure;BME280_temperature;BME280_humidity;BME280_pressure;Samples;Min_cycle;Max_cycle;Signal;HPM_P1;HPM_P2
2021/12/17 00:00:47;;;;;;;;;;;3.20;99.90;;;;;;5110354;28;20023;-77
2021/12/17 00:03:32;;;;;;;;;;;3.20;99.90;;;;;;5112062;28;20348;-78
2021/12/17 00:08:48;;;;;;;;;;;3.30;99.90;;;;;;5096609;28;19995;-78
2021/12/17 00:11:15;;;;;;;;;;;3.20;99.90;;;;;;5113453;28;19923;-78
2021/12/17 00:13:45;;;;;;;;;;;3.20;99.90;;;;;;5111920;28;19963;-78
2021/12/17 00:16:17;;;;;;;;;;;3.20;99.90;;;;;;5111674;28;19971;-78
2021/12/17 00:18:58;;;;;;;;;;;3.20;99.90;;;;;;5109103;28;19951;-79
2021/12/17 00:48:50;;;;;;;;;;;3.10;99.90;;;;;;5112045;27;20013;-78
2021/12/17 00:54:21;;;;;;;;;;;3.10;99.90;;;;;;5069895;28;19925;-78
2021/12/17 00:56:48;;;;;;;;;;;3.10;99.90;;;;;;5105591;28;20008;-78
2021/12/17 00:59:14;;;;;;;;;;;3.00;99.90;;;;;;5109326;27;20014;-77
2021/12/17 01:01:42;;;;;;;;;;;2.90;99.90;;;;;;5109052;28;20301;-77
2021/12/17 01:04:09;;;;;;;;;;;2.80;99.90;;;;;;5116296;28;19923;-78
2021/12/17 01:06:36;;;;;;;;;;;2.80;99.90;;;;;;5114438;27;19950;-78
2021/12/17 01:09:03;;;;;;;;;;;2.80;99.90;;;;;;5114130;28;20102;-78
2021/12/17 01:11:30;;;;;;;;;;;2.70;99.90;;;;;;5104416;27;19974;-78
2021/12/17 01:13:56;;;;;;;;;;;2.70;99.90;;;;;;5114444;28;20014;-77
2021/12/17 01:16:23;;;;;;;;;;;2.80;99.90;;;;;;5113324;28;19932;-77
2021/12/17 01:19:00;;;;;;;;;;;2.80;99.90;;;;;;5113605;27;20434;-78
2021/12/17 01:21:38;;;;;;;;;;;2.80;99.90;;;;;;5111053;27;20028;-79
2021/12/17 01:24:14;;;;;;;;;;;2.80;99.90;;;;;;5113333;27;19924;-79
2021/12/17 01:41:02;;;;;;;;;;;3.00;99.90;;;;;;5067558;28;19924;-77
2021/12/17 01:43:32;;;;;;;;;;;3.00;99.90;;;;;;5070648;28;20295;-76
2021/12/17 01:45:59;;;;;;;;;;;3.10;99.90;;;;;;5095661;27;20394;-77
2021/12/17 01:48:33;;;;;;;;;;;3.10;99.90;;;;;;5120728;27;19924;-78
2021/12/17 01:56:51;;;;;;;;;;;3.10;99.90;;;;;;5105680;27;19931;-77
2021/12/17 01:59:26;;;;;;;;;;;3.10;99.90;;;;;;5112000;27;19924;-77
2021/12/17 02:01:54;;;;;;;;;;;3.10;99.90;;;;;;5109597;27;19924;-77
2021/12/17 02:04:21;;;;;;;;;;;3.00;99.90;;;;;;5112904;27;19923;-76
2021/12/17 02:06:49;;;;;;;;;;;3.00;99.90;;;;;;5111680;27;20092;-77
2021/12/17 02:09:50;;;;;;;;;;;2.90;99.90;;;;;;5117634;28;19974;-77
2021/12/17 02:20:58;;;;;;;;;;;3.00;99.90;;;;;;5117269;27;19976;-77
2021/12/17 02:28:58;;;;;;;;;;;2.80;99.90;;;;;;5113713;27;20298;-77
2021/12/17 02:31:28;;;;;;;;;;;2.90;99.90;;;;;;5114880;28;20305;-78
2021/12/17 02:33:56;;;;;;;;;;;3.00;99.90;;;;;;5111617;27;19969;-77
2021/12/17 02:36:28;;;;;;;;;;;3.20;99.90;;;;;;5113490;28;20329;-77
2021/12/17 02:39:02;;;;;;;;;;;3.20;99.90;;;;;;5108475;27;19923;-78
2021/12/17 02:46:58;;;;;;;;;;;3.30;99.90;;;;;;5116910;28;19930;-78
2021/12/17 02:49:27;;;;;;;;;;;3.30;99.90;;;;;;5108685;28;20066;-78
2021/12/17 02:51:56;;;;;;;;;;;3.30;99.90;;;;;;5113716;28;19923;-77
2021/12/17 02:54:22;;;;;;;;;;;3.40;99.90;;;;;;5101790;27;19924;-77
2021/12/17 02:56:49;;;;;;;;;;;3.30;99.90;;;;;;5109629;28;19931;-77
2021/12/17 02:59:16;;;;;;;;;;;3.30;99.90;;;;;;5108613;27;20361;-77
2021/12/17 03:01:45;;;;;;;;;;;3.30;99.90;;;;;;5112303;27;20000;-77
2021/12/17 03:04:12;;;;;;;;;;;3.40;99.90;;;;;;5106996;27;20387;-76
2021/12/17 03:06:40;;;;;;;;;;;3.30;99.90;;;;;;5112534;27;20450;-77
2021/12/17 03:09:08;;;;;;;;;;;3.30;99.90;;;;;;5111485;28;19924;-77
2021/12/17 03:11:37;;;;;;;;;;;3.30;99.90;;;;;;5112005;28;19923;-79
2021/12/17 03:14:04;;;;;;;;;;;3.40;99.90;;;;;;5106656;28;19924;-77
2021/12/17 03:16:39;;;;;;;;;;;3.40;99.90;;;;;;5110177;27;19959;-78
2021/12/17 03:19:11;;;;;;;;;;;3.50;99.90;;;;;;5112057;27;19928;-77
2021/12/17 03:24:23;;;;;;;;;;;3.50;99.90;;;;;;5116946;27;20069;-76
2021/12/17 03:26:50;;;;;;;;;;;3.50;99.90;;;;;;5114376;27;19924;-78
2021/12/17 03:29:17;;;;;;;;;;;3.50;99.90;;;;;;5111595;28;19924;-77
2021/12/17 03:31:44;;;;;;;;;;;3.50;99.90;;;;;;5112825;28;22270;-77
2021/12/17 03:34:19;;;;;;;;;;;3.50;99.90;;;;;;5105023;28;19999;-77
2021/12/17 03:36:47;;;;;;;;;;;3.50;99.90;;;;;;5098590;27;19954;-77
2021/12/17 03:39:14;;;;;;;;;;;3.50;99.90;;;;;;5110395;28;19931;-78
2021/12/17 03:41:49;;;;;;;;;;;3.40;99.90;;;;;;5112150;28;20026;-78
2021/12/17 03:44:16;;;;;;;;;;;3.50;99.90;;;;;;5112453;28;19924;-77
2021/12/17 03:46:44;;;;;;;;;;;3.50;99.90;;;;;;5109960;28;19928;-79
2021/12/17 03:49:11;;;;;;;;;;;3.50;99.90;;;;;;5113974;28;19924;-78
2021/12/17 03:51:47;;;;;;;;;;;3.60;99.90;;;;;;5113610;28;19938;-79
2021/12/17 03:54:14;;;;;;;;;;;3.50;99.90;;;;;;5114981;28;19931;-79
2021/12/17 03:56:42;;;;;;;;;;;3.60;99.90;;;;;;5107430;28;19924;-78
2021/12/17 03:59:10;;;;;;;;;;;3.60;99.90;;;;;;5110896;28;20493;-78
2021/12/17 04:01:37;;;;;;;;;;;3.50;99.90;;;;;;5106710;28;20423;-78
2021/12/17 04:04:04;;;;;;;;;;;3.50;99.90;;;;;;5113077;28;20018;-78
2021/12/17 04:06:31;;;;;;;;;;;3.50;99.90;;;;;;5105765;28;20034;-78
2021/12/17 04:08:57;;;;;;;;;;;3.60;99.90;;;;;;5110337;28;19946;-77
2021/12/17 04:11:24;;;;;;;;;;;3.60;99.90;;;;;;5111133;28;20015;-77
2021/12/17 04:13:54;;;;;;;;;;;3.50;99.90;;;;;;5110201;28;20023;-77
2021/12/17 04:16:25;;;;;;;;;;;3.50;99.90;;;;;;5105902;28;19931;-78
2021/12/17 04:18:51;;;;;;;;;;;3.50;99.90;;;;;;5112362;28;20333;-77
2021/12/17 04:21:18;;;;;;;;;;;3.60;99.90;;;;;;5112350;28;19967;-78
2021/12/17 04:23:46;;;;;;;;;;;3.60;99.90;;;;;;5118757;27;19924;-78
2021/12/17 04:26:15;;;;;;;;;;;3.60;99.90;;;;;;5113794;27;19928;-78
2021/12/17 04:28:44;;;;;;;;;;;3.60;99.90;;;;;;5112369;28;20440;-78
2021/12/17 04:31:12;;;;;;;;;;;3.60;99.90;;;;;;5115211;27;19930;-79
2021/12/17 04:33:41;;;;;;;;;;;3.60;99.90;;;;;;5112471;28;20332;-77
2021/12/17 04:36:09;;;;;;;;;;;3.50;99.90;;;;;;5114314;28;20447;-78
2021/12/17 04:38:36;;;;;;;;;;;3.50;99.90;;;;;;5111970;27;19938;-77
2021/12/17 04:41:35;;;;;;;;;;;3.50;99.90;;;;;;5116846;28;20005;-77
2021/12/17 04:44:01;;;;;;;;;;;3.40;99.90;;;;;;5115863;28;19927;-77
2021/12/17 04:46:35;;;;;;;;;;;3.40;99.90;;;;;;5115639;27;19924;-77
2021/12/17 04:57:28;;;;;;;;;;;3.30;99.90;;;;;;5112553;27;20314;-78
2021/12/17 04:59:56;;;;;;;;;;;3.30;99.90;;;;;;5113789;27;20322;-77
2021/12/17 05:02:24;;;;;;;;;;;3.40;99.90;;;;;;5115260;27;19924;-77
2021/12/17 05:04:52;;;;;;;;;;;3.40;99.90;;;;;;5114362;27;20022;-77
2021/12/17 05:07:21;;;;;;;;;;;3.40;99.90;;;;;;5112453;27;19928;-77
2021/12/17 05:09:54;;;;;;;;;;;3.50;99.90;;;;;;5110297;27;20317;-77
2021/12/17 05:20:44;;;;;;;;;;;3.50;99.90;;;;;;5129284;27;19958;-81
2021/12/17 05:23:11;;;;;;;;;;;3.50;99.90;;;;;;5138684;27;19930;-80
2021/12/17 05:25:37;;;;;;;;;;;3.50;99.90;;;;;;5128481;27;19974;-80
2021/12/17 05:28:04;;;;;;;;;;;3.50;99.90;;;;;;5132350;28;19995;-80
2021/12/17 05:30:32;;;;;;;;;;;3.60;99.90;;;;;;5123338;28;20022;-79
2021/12/17 05:33:01;;;;;;;;;;;3.60;99.90;;;;;;5120786;27;20003;-80
2021/12/17 05:35:28;;;;;;;;;;;3.60;99.90;;;;;;5125849;27;19924;-80
2021/12/17 05:37:55;;;;;;;;;;;3.60;99.90;;;;;;5129079;27;19928;-80
2021/12/17 05:40:22;;;;;;;;;;;3.60;99.90;;;;;;5131475;28;19988;-80
2021/12/17 05:42:50;;;;;;;;;;;3.70;99.90;;;;;;5129757;28;19987;-80
2021/12/17 05:45:33;;;;;;;;;;;3.70;99.90;;;;;;5147173;27;19931;-80
2021/12/17 05:48:01;;;;;;;;;;;3.70;99.90;;;;;;5136187;27;19929;-80
2021/12/17 05:50:28;;;;;;;;;;;3.80;99.90;;;;;;5131948;27;20417;-80
2021/12/17 05:52:54;;;;;;;;;;;3.80;99.90;;;;;;5120397;28;19963;-80
2021/12/17 05:55:21;;;;;;;;;;;3.80;99.90;;;;;;5125341;28;19924;-81
2021/12/17 05:57:48;;;;;;;;;;;3.80;99.90;;;;;;5125899;28;20023;-80
2021/12/17 06:00:15;;;;;;;;;;;3.90;99.90;;;;;;5117471;28;20166;-80
2021/12/17 06:02:45;;;;;;;;;;;3.90;99.90;;;;;;5124061;28;19924;-80
2021/12/17 06:05:13;;;;;;;;;;;3.90;99.90;;;;;;5122405;28;20034;-80
2021/12/17 06:07:39;;;;;;;;;;;3.90;99.90;;;;;;5126411;28;19963;-80
2021/12/17 06:10:08;;;;;;;;;;;3.90;99.90;;;;;;5125637;27;19959;-80
2021/12/17 06:12:35;;;;;;;;;;;4.00;99.90;;;;;;5115746;28;19935;-80
2021/12/17 06:15:02;;;;;;;;;;;4.00;99.90;;;;;;5127289;27;19923;-79
2021/12/17 06:17:29;;;;;;;;;;;4.00;99.90;;;;;;5116055;27;19930;-79
2021/12/17 06:19:56;;;;;;;;;;;4.00;99.90;;;;;;5115599;28;19931;-79
2021/12/17 06:22:24;;;;;;;;;;;4.00;99.90;;;;;;5111323;27;20382;-80
2021/12/17 06:24:52;;;;;;;;;;;4.00;99.90;;;;;;5105159;28;19924;-79
2021/12/17 06:27:19;;;;;;;;;;;4.10;99.90;;;;;;5108602;28;19923;-80
2021/12/17 06:29:48;;;;;;;;;;;4.10;99.90;;;;;;5112669;27;20481;-78
2021/12/17 06:32:14;;;;;;;;;;;4.20;99.90;;;;;;5107273;27;19931;-78
2021/12/17 06:34:41;;;;;;;;;;;4.20;99.90;;;;;;5114803;28;19969;-77
2021/12/17 06:37:08;;;;;;;;;;;4.20;99.90;;;;;;5109759;28;20301;-78
2021/12/17 06:39:36;;;;;;;;;;;4.10;99.90;;;;;;5113644;28;20038;-77
2021/12/17 06:42:03;;;;;;;;;;;4.20;99.90;;;;;;5115276;28;20382;-78
2021/12/17 06:44:30;;;;;;;;;;;4.20;99.90;;;;;;5118974;27;19924;-78
2021/12/17 06:47:02;;;;;;;;;;;4.20;99.90;;;;;;5120881;28;19928;-79
2021/12/17 06:49:43;;;;;;;;;;;4.20;99.90;;;;;;5120893;28;19931;-79
2021/12/17 06:55:04;;;;;;;;;;;4.20;99.90;;;;;;5118197;27;19989;-79
2021/12/17 07:00:20;;;;;;;;;;;4.30;99.90;;;;;;5118609;27;19934;-79
2021/12/17 07:11:15;;;;;;;;;;;4.40;99.90;;;;;;5108436;28;19932;-77
2021/12/17 07:22:01;;;;;;;;;;;4.40;99.90;;;;;;5102640;28;20010;-76
2021/12/17 07:32:49;;;;;;;;;;;4.50;99.90;;;;;;5106330;27;20382;-76
2021/12/17 07:40:50;;;;;;;;;;;4.30;99.90;;;;;;5105021;28;20357;-74
2021/12/17 07:43:24;;;;;;;;;;;4.30;99.90;;;;;;5113119;27;19938;-74
2021/12/17 07:45:51;;;;;;;;;;;4.30;99.90;;;;;;5105789;28;19924;-73
2021/12/17 07:48:18;;;;;;;;;;;4.40;99.90;;;;;;5109319;28;19938;-74
2021/12/17 07:50:45;;;;;;;;;;;4.40;99.90;;;;;;5107220;28;19932;-74
2021/12/17 07:53:12;;;;;;;;;;;4.40;99.90;;;;;;5103028;28;19930;-74
2021/12/17 07:55:39;;;;;;;;;;;4.40;99.90;;;;;;5110930;28;19981;-74
2021/12/17 07:58:06;;;;;;;;;;;4.40;99.90;;;;;;5110989;28;20366;-75
2021/12/17 08:00:34;;;;;;;;;;;4.40;99.90;;;;;;5109289;28;20482;-74
2021/12/17 08:03:00;;;;;;;;;;;4.40;99.90;;;;;;5105410;28;20255;-74
2021/12/17 08:05:27;;;;;;;;;;;4.60;99.90;;;;;;5108196;28;19930;-73
2021/12/17 08:07:54;;;;;;;;;;;4.50;99.90;;;;;;5104582;28;19931;-73
2021/12/17 08:10:21;;;;;;;;;;;4.60;99.90;;;;;;5106128;28;19924;-73
2021/12/17 08:12:47;;;;;;;;;;;4.60;99.90;;;;;;5106504;28;19930;-74
2021/12/17 08:15:14;;;;;;;;;;;4.50;99.90;;;;;;5104382;28;20268;-75
2021/12/17 08:18:07;;;;;;;;;;;4.60;99.90;;;;;;5106511;28;20015;-75
2021/12/17 08:26:14;;;;;;;;;;;4.80;99.90;;;;;;5043942;28;19925;-75
2021/12/17 08:29:06;;;;;;;;;;;4.80;99.90;;;;;;5110589;28;19923;-74
2021/12/17 08:31:33;;;;;;;;;;;4.90;99.90;;;;;;5106384;28;20336;-72
2021/12/17 08:34:02;;;;;;;;;;;4.90;99.90;;;;;;5108275;28;19931;-73
2021/12/17 08:36:29;;;;;;;;;;;4.90;99.90;;;;;;5103967;28;19928;-78
2021/12/17 08:38:56;;;;;;;;;;;5.00;99.90;;;;;;5114237;28;19936;-75
2021/12/17 08:41:23;;;;;;;;;;;5.10;99.90;;;;;;5101475;28;19931;-75
2021/12/17 08:43:50;;;;;;;;;;;5.20;99.90;;;;;;5113369;28;20015;-75
2021/12/17 08:46:16;;;;;;;;;;;5.20;99.90;;;;;;5114992;28;19970;-76
2021/12/17 08:48:43;;;;;;;;;;;5.30;99.90;;;;;;5110159;28;20434;-74
2021/12/17 08:51:11;;;;;;;;;;;5.30;99.90;;;;;;5109868;28;19924;-74
2021/12/17 08:53:38;;;;;;;;;;;5.30;99.90;;;;;;5109318;28;19930;-73
2021/12/17 08:56:06;;;;;;;;;;;5.40;99.90;;;;;;5108263;28;19946;-74
2021/12/17 08:58:33;;;;;;;;;;;5.30;99.90;;;;;;5107783;28;19923;-73
2021/12/17 09:01:03;;;;;;;;;;;5.30;99.90;;;;;;5101783;28;19932;-72
2021/12/17 09:03:30;;;;;;;;;;;5.30;99.90;;;;;;5107465;28;19969;-72
2021/12/17 09:05:56;;;;;;;;;;;5.20;99.90;;;;;;5106764;28;19970;-73
2021/12/17 09:08:25;;;;;;;;;;;5.20;99.90;;;;;;5109178;28;19923;-74
2021/12/17 09:10:55;;;;;;;;;;;5.20;99.90;;;;;;5108721;27;19935;-74
2021/12/17 09:13:25;;;;;;;;;;;5.20;99.90;;;;;;5108564;28;20015;-74
2021/12/17 09:15:53;;;;;;;;;;;5.30;99.90;;;;;;5111626;28;19924;-77
2021/12/17 09:18:19;;;;;;;;;;;5.30;99.90;;;;;;5112615;28;19924;-75
2021/12/17 09:20:46;;;;;;;;;;;5.40;99.90;;;;;;5105959;28;19928;-74
2021/12/17 09:23:13;;;;;;;;;;;5.50;99.90;;;;;;5108792;27;19931;-75
2021/12/17 09:25:41;;;;;;;;;;;5.50;99.90;;;;;;5113933;28;20441;-75
2021/12/17 09:28:08;;;;;;;;;;;5.50;99.90;;;;;;5103597;27;20023;-74
2021/12/17 09:30:35;;;;;;;;;;;5.50;99.90;;;;;;5114224;28;20038;-75
2021/12/17 09:33:02;;;;;;;;;;;5.50;99.90;;;;;;5107888;27;19924;-71
2021/12/17 09:35:28;;;;;;;;;;;5.50;99.90;;;;;;5108176;28;19993;-75
2021/12/17 09:37:55;;;;;;;;;;;5.50;99.90;;;;;;5108809;28;19940;-75
2021/12/17 09:40:22;;;;;;;;;;;5.60;99.90;;;;;;5110809;28;20434;-73
2021/12/17 09:42:50;;;;;;;;;;;5.70;99.90;;;;;;5110152;27;19946;-77
2021/12/17 09:45:17;;;;;;;;;;;5.80;99.90;;;;;;5108449;28;20022;-75
2021/12/17 09:47:44;;;;;;;;;;;5.80;99.90;;;;;;5113814;27;19924;-77
2021/12/17 09:50:13;;;;;;;;;;;5.90;99.90;;;;;;5114432;28;20429;-77
2021/12/17 09:52:40;;;;;;;;;;;5.90;99.90;;;;;;5109070;28;22618;-77
2021/12/17 09:55:08;;;;;;;;;;;6.00;99.90;;;;;;5110411;28;19924;-75
2021/12/17 09:57:36;;;;;;;;;;;6.10;99.90;;;;;;5109506;27;19927;-75
2021/12/17 10:00:07;;;;;;;;;;;6.10;99.90;;;;;;5110070;28;20036;-76
2021/12/17 10:02:33;;;;;;;;;;;6.00;99.90;;;;;;5105346;27;19924;-75
2021/12/17 10:05:00;;;;;;;;;;;6.00;99.90;;;;;;5104953;27;20308;-74
2021/12/17 10:07:27;;;;;;;;;;;6.00;99.90;;;;;;5110063;28;19949;-79
2021/12/17 10:09:56;;;;;;;;;;;6.00;99.90;;;;;;5109589;28;19923;-77
2021/12/17 10:12:23;;;;;;;;;;;6.10;99.90;;;;;;5108516;28;20922;-78
2021/12/17 10:15:05;;;;;;;;;;;6.20;99.90;;;;;;5111024;28;19924;-75
2021/12/17 10:17:34;;;;;;;;;;;6.20;99.90;;;;;;5110678;27;19924;-75
2021/12/17 10:20:03;;;;;;;;;;;6.30;99.90;;;;;;5107073;27;19928;-75
2021/12/17 10:22:31;;;;;;;;;;;6.30;99.90;;;;;;5109320;28;20006;-75
2021/12/17 10:24:59;;;;;;;;;;;6.30;99.90;;;;;;5107564;27;19923;-78
2021/12/17 10:27:27;;;;;;;;;;;6.30;99.90;;;;;;5104125;27;20011;-77
2021/12/17 10:29:54;;;;;;;;;;;6.40;99.90;;;;;;5108419;27;19923;-76
2021/12/17 10:32:22;;;;;;;;;;;6.40;99.90;;;;;;5111390;28;20386;-76
2021/12/17 10:35:07;;;;;;;;;;;6.50;99.90;;;;;;5107759;28;19928;-76
2021/12/17 10:37:35;;;;;;;;;;;6.50;99.90;;;;;;5104289;28;20286;-75
2021/12/17 10:40:14;;;;;;;;;;;6.50;99.90;;;;;;5109438;27;19938;-77
2021/12/17 10:42:48;;;;;;;;;;;6.50;99.90;;;;;;5111280;28;19959;-78
2021/12/17 10:45:23;;;;;;;;;;;6.60;99.90;;;;;;5109973;28;20020;-78
2021/12/17 10:48:01;;;;;;;;;;;6.60;99.90;;;;;;5108548;27;19935;-77
2021/12/17 10:50:30;;;;;;;;;;;6.70;99.90;;;;;;5109839;27;20289;-77
2021/12/17 10:52:57;;;;;;;;;;;6.80;99.90;;;;;;5104197;27;20271;-76
2021/12/17 10:55:24;;;;;;;;;;;6.80;99.90;;;;;;5111190;28;19950;-78
2021/12/17 10:57:51;;;;;;;;;;;6.80;99.90;;;;;;5109364;28;20695;-76
2021/12/17 11:00:20;;;;;;;;;;;6.80;99.90;;;;;;5104908;28;19931;-78
2021/12/17 11:02:51;;;;;;;;;;;6.80;99.90;;;;;;5105219;28;20455;-76
2021/12/17 11:05:18;;;;;;;;;;;6.80;99.90;;;;;;5110062;28;19981;-76
2021/12/17 11:07:47;;;;;;;;;;;6.80;99.90;;;;;;5107868;28;20011;-75
2021/12/17 11:10:15;;;;;;;;;;;6.80;99.90;;;;;;5108878;28;19923;-76
2021/12/17 11:12:42;;;;;;;;;;;6.90;99.90;;;;;;5107973;28;19928;-77
2021/12/17 11:15:13;;;;;;;;;;;7.00;99.90;;;;;;5110604;28;19954;-76
2021/12/17 11:17:40;;;;;;;;;;;7.00;99.90;;;;;;5110975;28;19962;-79
2021/12/17 11:20:09;;;;;;;;;;;7.00;99.90;;;;;;5112929;28;20145;-79
2021/12/17 11:22:36;;;;;;;;;;;7.00;99.90;;;;;;5128182;28;19967;-81
2021/12/17 11:25:04;;;;;;;;;;;7.00;99.90;;;;;;5134122;28;19956;-80
2021/12/17 11:27:31;;;;;;;;;;;7.00;99.90;;;;;;5140405;27;19946;-76
2021/12/17 11:29:58;;;;;;;;;;;7.10;99.90;;;;;;5117216;28;19928;-76
2021/12/17 11:32:25;;;;;;;;;;;7.10;99.90;;;;;;5112341;28;19954;-78
2021/12/17 11:34:53;;;;;;;;;;;7.10;99.90;;;;;;5128380;28;19923;-79
2021/12/17 11:37:21;;;;;;;;;;;7.10;99.90;;;;;;5121612;28;20364;-79
2021/12/17 11:39:49;;;;;;;;;;;7.10;99.90;;;;;;5114106;28;19927;-77
2021/12/17 11:42:25;;;;;;;;;;;7.10;99.90;;;;;;5109236;28;19924;-78
2021/12/17 11:45:22;;;;;;;;;;;7.10;99.90;;;;;;5109521;28;20283;-77
2021/12/17 11:47:42;;;;;;;;;;;7.10;99.90;;;;;;5102343;28;20320;-76
2021/12/17 11:50:11;;;;;;;;;;;7.10;99.90;;;;;;5107929;28;19978;-77
2021/12/17 11:52:42;;;;;;;;;;;7.10;99.90;;;;;;5110656;28;19928;-77
2021/12/17 11:55:26;;;;;;;;;;;7.20;99.90;;;;;;5111054;28;19924;-80
2021/12/17 11:57:55;;;;;;;;;;;7.20;99.90;;;;;;5106535;28;20002;-76
2021/12/17 12:00:24;;;;;;;;;;;7.20;99.90;;;;;;5108469;28;19928;-76
2021/12/17 12:02:50;;;;;;;;;;;7.20;99.90;;;;;;5108789;28;19924;-76
2021/12/17 12:05:33;;;;;;;;;;;7.30;99.90;;;;;;5111209;28;20289;-75
2021/12/17 12:08:15;;;;;;;;;;;7.20;99.90;;;;;;5117857;28;19923;-79
2021/12/17 12:10:42;;;;;;;;;;;7.30;99.90;;;;;;5119280;28;19995;-77
2021/12/17 12:13:10;;;;;;;;;;;7.30;99.90;;;;;;5132840;28;19966;-79
2021/12/17 12:15:38;;;;;;;;;;;7.30;99.90;;;;;;5127908;28;19912;-75
2021/12/17 12:18:07;;;;;;;;;;;7.30;99.90;;;;;;5117819;28;19927;-77
2021/12/17 12:20:56;;;;;;;;;;;7.30;99.90;;;;;;5112146;28;19924;-78
2021/12/17 12:23:24;;;;;;;;;;;7.20;99.90;;;;;;5103942;28;20348;-75
2021/12/17 12:26:08;;;;;;;;;;;7.20;99.90;;;;;;5106678;28;19954;-75
2021/12/17 12:28:43;;;;;;;;;;;7.20;99.90;;;;;;5107495;28;20313;-75
2021/12/17 12:31:09;;;;;;;;;;;7.30;99.90;;;;;;5105547;28;19934;-77
2021/12/17 12:33:36;;;;;;;;;;;7.30;99.90;;;;;;5106148;28;19934;-77
2021/12/17 12:36:03;;;;;;;;;;;7.30;99.90;;;;;;5108031;28;20010;-76
2021/12/17 12:38:32;;;;;;;;;;;7.30;99.90;;;;;;5106049;28;20019;-76
2021/12/17 12:41:01;;;;;;;;;;;7.30;99.90;;;;;;5107175;28;19963;-76
2021/12/17 12:43:28;;;;;;;;;;;7.30;99.90;;;;;;5106604;28;20413;-78
2021/12/17 12:45:56;;;;;;;;;;;7.30;99.90;;;;;;5110320;28;19934;-79
2021/12/17 12:48:30;;;;;;;;;;;7.30;99.90;;;;;;5113774;28;20044;-77
2021/12/17 12:51:16;;;;;;;;;;;7.40;99.90;;;;;;5108316;28;20006;-76
2021/12/17 12:53:47;;;;;;;;;;;7.40;99.90;;;;;;5112914;28;20018;-75
2021/12/17 12:56:18;;;;;;;;;;;7.40;99.90;;;;;;5111935;28;19947;-76
2021/12/17 12:58:47;;;;;;;;;;;7.50;99.90;;;;;;5104945;28;19939;-79
2021/12/17 13:01:17;;;;;;;;;;;7.50;99.90;;;;;;5119696;28;19927;-74
2021/12/17 13:03:45;;;;;;;;;;;7.50;99.90;;;;;;5109328;28;20394;-76
2021/12/17 13:06:16;;;;;;;;;;;7.50;99.90;;;;;;5109775;28;20484;-76
2021/12/17 13:08:43;;;;;;;;;;;7.40;99.90;;;;;;5111176;27;19945;-77
2021/12/17 13:11:09;;;;;;;;;;;7.40;99.90;;;;;;5108622;28;19968;-77
2021/12/17 13:13:40;;;;;;;;;;;7.40;99.90;;;;;;5111976;27;20026;-75
2021/12/17 13:16:13;;;;;;;;;;;7.40;99.90;;;;;;5108589;28;19930;-77
2021/12/17 13:24:21;;;;;;;;;;;7.50;99.90;;;;;;5098246;27;19924;-76
2021/12/17 13:26:48;;;;;;;;;;;7.40;99.90;;;;;;5101718;27;19923;-77
2021/12/17 13:29:16;;;;;;;;;;;7.50;99.90;;;;;;5098907;28;19924;-75
2021/12/17 13:31:45;;;;;;;;;;;7.50;99.90;;;;;;5110458;28;20310;-75
2021/12/17 13:34:15;;;;;;;;;;;7.50;99.90;;;;;;5108968;28;19930;-76
2021/12/17 13:37:05;;;;;;;;;;;7.50;99.90;;;;;;5103224;28;20379;-72
2021/12/17 13:39:33;;;;;;;;;;;7.50;99.90;;;;;;5097660;28;19930;-75
2021/12/17 13:42:01;;;;;;;;;;;7.40;99.90;;;;;;5109301;28;20365;-78
2021/12/17 13:44:29;;;;;;;;;;;7.40;99.90;;;;;;5098815;28;20030;-78
2021/12/17 13:47:07;;;;;;;;;;;7.50;99.90;;;;;;5098485;28;19934;-75
2021/12/17 13:49:35;;;;;;;;;;;7.50;99.90;;;;;;5096380;28;19927;-77
2021/12/17 13:52:03;;;;;;;;;;;7.50;99.90;;;;;;5086194;28;19928;-76
2021/12/17 13:54:29;;;;;;;;;;;7.60;99.90;;;;;;5094771;27;19954;-75
2021/12/17 13:56:57;;;;;;;;;;;7.50;99.90;;;;;;5100063;28;19938;-78
2021/12/17 13:59:28;;;;;;;;;;;7.60;99.90;;;;;;5097941;27;20068;-78
2021/12/17 14:01:54;;;;;;;;;;;7.50;99.90;;;;;;5096500;28;20301;-78
2021/12/17 14:04:21;;;;;;;;;;;7.60;99.90;;;;;;5095483;28;19932;-76
2021/12/17 14:06:52;;;;;;;;;;;7.60;99.90;;;;;;5099306;28;19977;-79
2021/12/17 14:09:19;;;;;;;;;;;7.60;99.90;;;;;;5112921;28;19942;-77
2021/12/17 14:11:46;;;;;;;;;;;7.60;99.90;;;;;;5115874;28;19927;-77
2021/12/17 14:14:23;;;;;;;;;;;7.60;99.90;;;;;;5112903;27;19924;-77
2021/12/17 14:16:56;;;;;;;;;;;7.60;99.90;;;;;;5108654;28;19932;-77
2021/12/17 14:19:34;;;;;;;;;;;7.60;99.90;;;;;;5109973;28;20330;-79
2021/12/17 14:22:03;;;;;;;;;;;7.70;99.90;;;;;;5103517;28;19924;-77
2021/12/17 14:24:30;;;;;;;;;;;7.60;99.90;;;;;;5104259;28;20027;-76
2021/12/17 14:26:57;;;;;;;;;;;7.60;99.90;;;;;;5105064;28;20315;-75
2021/12/17 14:29:28;;;;;;;;;;;7.60;99.90;;;;;;5106259;28;20042;-76
2021/12/17 14:31:59;;;;;;;;;;;7.60;99.90;;;;;;5109551;28;19924;-76
2021/12/17 14:34:25;;;;;;;;;;;7.60;99.90;;;;;;5106407;28;19954;-77
2021/12/17 14:37:01;;;;;;;;;;;7.60;99.90;;;;;;5116100;28;19923;-78
2021/12/17 14:39:34;;;;;;;;;;;7.60;99.90;;;;;;5106471;28;20305;-73
2021/12/17 14:42:04;;;;;;;;;;;7.60;99.90;;;;;;5119270;28;20390;-77
2021/12/17 14:44:38;;;;;;;;;;;7.70;99.90;;;;;;5107993;28;19927;-73
2021/12/17 14:47:18;;;;;;;;;;;7.70;99.90;;;;;;5108599;28;19932;-75
2021/12/17 15:01:12;;;;;;;;;;;7.70;99.90;;;;;;5105558;28;19985;-76
2021/12/17 15:03:42;;;;;;;;;;;7.70;99.90;;;;;;5105544;28;19928;-78
2021/12/17 15:06:09;;;;;;;;;;;7.70;99.90;;;;;;5109655;27;20444;-77
2021/12/17 15:08:36;;;;;;;;;;;7.70;99.90;;;;;;5119976;27;19991;-78
2021/12/17 15:11:09;;;;;;;;;;;7.70;99.90;;;;;;5103913;27;19930;-77
2021/12/17 15:13:39;;;;;;;;;;;7.70;99.90;;;;;;5102345;28;19966;-75
2021/12/17 15:16:06;;;;;;;;;;;7.70;99.90;;;;;;5106031;28;19924;-79
2021/12/17 15:18:32;;;;;;;;;;;7.70;99.90;;;;;;5107200;27;20343;-77
2021/12/17 15:20:59;;;;;;;;;;;7.70;99.90;;;;;;5104804;27;20378;-75
2021/12/17 15:23:26;;;;;;;;;;;7.70;99.90;;;;;;5107132;27;20310;-74
2021/12/17 15:25:53;;;;;;;;;;;7.70;99.90;;;;;;5107406;27;20294;-76
2021/12/17 15:28:26;;;;;;;;;;;7.70;99.90;;;;;;5104128;28;19927;-77
2021/12/17 15:30:54;;;;;;;;;;;7.80;99.90;;;;;;5103244;28;19932;-74
2021/12/17 15:33:21;;;;;;;;;;;7.70;99.90;;;;;;5105303;28;20650;-76
2021/12/17 15:35:49;;;;;;;;;;;7.70;99.90;;;;;;5106162;27;20014;-76
2021/12/17 15:38:16;;;;;;;;;;;7.80;99.90;;;;;;5102880;28;19928;-75
2021/12/17 15:40:45;;;;;;;;;;;7.80;99.90;;;;;;5103627;28;19931;-73
2021/12/17 15:43:13;;;;;;;;;;;7.80;99.90;;;;;;5104358;28;19924;-74
2021/12/17 15:45:42;;;;;;;;;;;7.80;99.90;;;;;;5106606;28;20336;-74
2021/12/17 15:48:10;;;;;;;;;;;7.80;99.90;;;;;;5106337;28;20014;-77
2021/12/17 15:50:38;;;;;;;;;;;7.80;99.90;;;;;;5103631;27;19931;-75
2021/12/17 15:53:05;;;;;;;;;;;7.80;99.90;;;;;;5104371;28;19934;-75
2021/12/17 15:55:32;;;;;;;;;;;7.80;99.90;;;;;;5102770;28;20832;-77
2021/12/17 15:57:58;;;;;;;;;;;7.80;99.90;;;;;;5104557;28;19927;-77
2021/12/17 16:00:27;;;;;;;;;;;7.80;99.90;;;;;;5107948;28;19924;-76
2021/12/17 16:02:55;;;;;;;;;;;7.90;99.90;;;;;;5104594;28;20011;-75
2021/12/17 16:05:24;;;;;;;;;;;7.80;99.90;;;;;;5103886;28;19928;-77
2021/12/17 16:07:52;;;;;;;;;;;7.80;99.90;;;;;;5102463;28;19923;-76
2021/12/17 16:18:50;;;;;;;;;;;7.90;99.90;;;;;;5109122;27;19953;-77
2021/12/17 16:21:19;;;;;;;;;;;7.90;99.90;;;;;;5111033;28;19924;-77
2021/12/17 16:23:47;;;;;;;;;;;7.90;99.90;;;;;;5109507;28;20313;-77
2021/12/17 16:26:14;;;;;;;;;;;7.90;99.90;;;;;;5110537;28;19932;-76
2021/12/17 16:28:45;;;;;;;;;;;7.90;99.90;;;;;;5109494;28;19934;-78
2021/12/17 16:31:13;;;;;;;;;;;7.90;99.90;;;;;;5111943;28;19924;-79
2021/12/17 16:33:42;;;;;;;;;;;7.90;99.90;;;;;;5113034;28;19932;-75
2021/12/17 16:36:09;;;;;;;;;;;7.80;99.90;;;;;;5112955;27;19974;-76
2021/12/17 16:38:36;;;;;;;;;;;7.90;99.90;;;;;;5110120;27;20362;-76
2021/12/17 16:41:04;;;;;;;;;;;7.90;99.90;;;;;;5111624;28;19932;-76
2021/12/17 16:43:31;;;;;;;;;;;7.90;99.90;;;;;;5109770;28;19930;-76
2021/12/17 16:46:11;;;;;;;;;;;7.90;99.90;;;;;;5116044;27;19967;-76
2021/12/17 16:48:39;;;;;;;;;;;7.90;99.90;;;;;;5111102;27;19923;-75
2021/12/17 16:51:08;;;;;;;;;;;7.90;99.90;;;;;;5111807;27;19963;-77
2021/12/17 16:53:34;;;;;;;;;;;7.90;99.90;;;;;;5111042;28;19979;-77
2021/12/17 16:56:01;;;;;;;;;;;7.90;99.90;;;;;;5107336;27;20469;-77
2021/12/17 16:58:29;;;;;;;;;;;7.90;99.90;;;;;;5113382;28;19930;-78
2021/12/17 17:00:56;;;;;;;;;;;7.90;99.90;;;;;;5108742;27;19932;-76
2021/12/17 17:03:23;;;;;;;;;;;7.90;99.90;;;;;;5104638;27;19928;-76
2021/12/17 17:05:49;;;;;;;;;;;7.90;99.90;;;;;;5105883;28;19924;-77
2021/12/17 17:08:17;;;;;;;;;;;7.90;99.90;;;;;;5110853;27;19974;-76
2021/12/17 17:10:51;;;;;;;;;;;7.90;99.90;;;;;;5110349;27;20010;-75
2021/12/17 17:13:19;;;;;;;;;;;7.90;99.90;;;;;;5108390;27;19945;-77
2021/12/17 17:15:46;;;;;;;;;;;7.90;99.90;;;;;;5108893;27;19975;-76
2021/12/17 17:18:13;;;;;;;;;;;7.90;99.90;;;;;;5111679;27;20018;-77
2021/12/17 17:20:40;;;;;;;;;;;7.90;99.90;;;;;;5112344;28;19924;-77
2021/12/17 17:23:07;;;;;;;;;;;7.90;99.90;;;;;;5110089;27;19923;-77